sensor_id;sensor_type;location;lat;lon;timestamp;pressure;altitude;pressure_sealevel;temperature;humidity
59877;BME280;45749;51.140;17.184;2023-11-21T00:01:37;99249.00;;;9.23;100.00
59877;BME280;45749;51.140;17.184;2023-11-21T00:04:03;99253.53;;;9.21;100.00
59877;BME280;45749;51.140;17.184;2023-11-21T00:06:28;99251.19;;;9.18;100.00
59877;BME280;45749;51.140;17.184;2023-11-21T00:08:55;99254.66;;;9.19;100.00
59877;BME280;45749;51.140;17.184;2023-11-21T00:11:20;99263.72;;;9.26;100.00
59877;BME280;45749;51.140;17.184;2023-11-21T00:13:46;99256.91;;;9.23;100.00
59877;BME280;45749;51.140;17.184;2023-11-21T00:16:11;99254.91;;;9.15;100.00
59877;BME280;45749;51.140;17.184;2023-11-21T00:18:37;99268.91;;;9.16;100.00
59877;BME280;45749;51.140;17.184;2023-11-21T00:21:02;99259.84;;;9.09;100.00
59877;BME280;45749;51.140;17.184;2023-11-21T00:23:28;99262.09;;;9.13;100.00
59877;BME280;45749;51.140;17.184;2023-11-21T00:25:54;99264.28;;;9.08;100.00
59877;BME280;45749;51.140;17.184;2023-11-21T00:28:19;99273.00;;;9.09;100.00
59877;BME280;45749;51.140;17.184;2023-11-21T00:30:44;99274.88;;;9.18;100.00
59877;BME280;45749;51.140;17.184;2023-11-21T00:33:10;99275.66;;;9.09;100.00
59877;BME280;45749;51.140;17.184;2023-11-21T00:35:36;99274.19;;;9.05;100.00
59877;BME280;45749;51.140;17.184;2023-11-21T00:38:01;99269.22;;;9.02;100.00
59877;BME280;45749;51.140;17.184;2023-11-21T00:40:28;99275.75;;;9.07;100.00
59877;BME280;45749;51.140;17.184;2023-11-21T00:42:53;99267.75;;;9.09;100.00
59877;BME280;45749;51.140;17.184;2023-11-21T00:45:19;99272.19;;;9.08;100.00
59877;BME280;45749;51.140;17.184;2023-11-21T00:47:44;99283.88;;;9.15;100.00
59877;BME280;45749;51.140;17.184;2023-11-21T00:50:09;99288.16;;;9.16;100.00
59877;BME280;45749;51.140;17.184;2023-11-21T00:52:35;99276.72;;;9.06;100.00
59877;BME280;45749;51.140;17.184;2023-11-21T00:55:01;99289.97;;;9.16;100.00
59877;BME280;45749;51.140;17.184;2023-11-21T00:57:28;99284.72;;;9.05;100.00
59877;BME280;45749;51.140;17.184;2023-11-21T00:59:53;99284.72;;;9.05;100.00
59877;BME280;45749;51.140;17.184;2023-11-21T01:02:18;99273.88;;;8.98;100.00
59877;BME280;45749;51.140;17.184;2023-11-21T01:04:44;99275.00;;;8.96;100.00
59877;BME280;45749;51.140;17.184;2023-11-21T01:07:09;99285.00;;;9.02;100.00
59877;BME280;45749;51.140;17.184;2023-11-21T01:09:34;99274.28;;;8.93;100.00
59877;BME280;45749;51.140;17.184;2023-11-21T01:12:01;99267.59;;;8.89;100.00
59877;BME280;45749;51.140;17.184;2023-11-21T01:14:27;99287.19;;;8.97;100.00
59877;BME280;45749;51.140;17.184;2023-11-21T01:16:53;99291.94;;;9.03;100.00
59877;BME280;45749;51.140;17.184;2023-11-21T01:19:18;99274.16;;;8.95;100.00
59877;BME280;45749;51.140;17.184;2023-11-21T01:21:43;99295.25;;;9.05;100.00
59877;BME280;45749;51.140;17.184;2023-11-21T01:24:09;99269.16;;;8.92;100.00
59877;BME280;45749;51.140;17.184;2023-11-21T01:26:34;99291.44;;;9.09;100.00
59877;BME280;45749;51.140;17.184;2023-11-21T01:28:59;99275.91;;;9.06;100.00
59877;BME280;45749;51.140;17.184;2023-11-21T01:31:25;99287.84;;;9.10;100.00
59877;BME280;45749;51.140;17.184;2023-11-21T01:33:54;99282.97;;;9.05;100.00
59877;BME280;45749;51.140;17.184;2023-11-21T01:36:20;99297.13;;;9.14;100.00
59877;BME280;45749;51.140;17.184;2023-11-21T01:38:46;99290.72;;;9.07;100.00
59877;BME280;45749;51.140;17.184;2023-11-21T01:41:13;99302.66;;;9.11;100.00
59877;BME280;45749;51.140;17.184;2023-11-21T01:43:39;99284.72;;;9.05;100.00
59877;BME280;45749;51.140;17.184;2023-11-21T01:46:05;99290.84;;;9.05;100.00
59877;BME280;45749;51.140;17.184;2023-11-21T01:48:31;99281.84;;;9.08;100.00
59877;BME280;45749;51.140;17.184;2023-11-21T01:50:57;99283.28;;;9.12;100.00
59877;BME280;45749;51.140;17.184;2023-11-21T01:53:24;99298.81;;;9.15;100.00
59877;BME280;45749;51.140;17.184;2023-11-21T01:55:51;99276.59;;;9.08;100.00
59877;BME280;45749;51.140;17.184;2023-11-21T01:58:16;99286.75;;;9.12;100.00
59877;BME280;45749;51.140;17.184;2023-11-21T02:00:42;99286.75;;;9.12;100.00
59877;BME280;45749;51.140;17.184;2023-11-21T02:03:08;99306.31;;;9.20;100.00
59877;BME280;45749;51.140;17.184;2023-11-21T02:05:35;99307.41;;;9.17;100.00
59877;BME280;45749;51.140;17.184;2023-11-21T02:08:01;99294.31;;;9.06;100.00
59877;BME280;45749;51.140;17.184;2023-11-21T02:10:27;99293.59;;;9.04;100.00
59877;BME280;45749;51.140;17.184;2023-11-21T02:12:54;99290.28;;;9.02;100.00
59877;BME280;45749;51.140;17.184;2023-11-21T02:15:21;99299.44;;;9.07;100.00
59877;BME280;45749;51.140;17.184;2023-11-21T02:17:49;99303.03;;;9.06;100.00
59877;BME280;45749;51.140;17.184;2023-11-21T02:20:19;99294.94;;;8.98;100.00
59877;BME280;45749;51.140;17.184;2023-11-21T02:22:52;99311.31;;;9.02;100.00
59877;BME280;45749;51.140;17.184;2023-11-21T02:25:41;99293.66;;;8.92;100.00
59877;BME280;45749;51.140;17.184;2023-11-21T02:28:07;99311.31;;;9.02;100.00
59877;BME280;45749;51.140;17.184;2023-11-21T02:30:33;99304.63;;;8.98;100.00
59877;BME280;45749;51.140;17.184;2023-11-21T02:32:59;99301.31;;;8.96;100.00
59877;BME280;45749;51.140;17.184;2023-11-21T02:35:25;99307.97;;;9.00;100.00
59877;BME280;45749;51.140;17.184;2023-11-21T02:37:54;99296.66;;;8.88;100.00
59877;BME280;45749;51.140;17.184;2023-11-21T02:40:19;99302.50;;;8.91;100.00
59877;BME280;45749;51.140;17.184;2023-11-21T02:42:50;99316.94;;;8.97;100.00
59877;BME280;45749;51.140;17.184;2023-11-21T02:45:20;99299.53;;;8.85;100.00
59877;BME280;45749;51.140;17.184;2023-11-21T02:47:49;99312.75;;;8.95;100.00
59877;BME280;45749;51.140;17.184;2023-11-21T02:50:14;99299.16;;;8.89;100.00
59877;BME280;45749;51.140;17.184;2023-11-21T02:52:40;99311.09;;;8.93;100.00
59877;BME280;45749;51.140;17.184;2023-11-21T02:55:05;99308.28;;;8.85;100.00
59877;BME280;45749;51.140;17.184;2023-11-21T02:57:32;99320.56;;;8.96;100.00
59877;BME280;45749;51.140;17.184;2023-11-21T02:59:58;99308.97;;;8.87;100.00
59877;BME280;45749;51.140;17.184;2023-11-21T03:02:24;99315.66;;;8.91;100.00
59877;BME280;45749;51.140;17.184;2023-11-21T03:04:49;99314.56;;;8.94;100.00
59877;BME280;45749;51.140;17.184;2023-11-21T03:07:15;99311.94;;;8.94;100.00
59877;BME280;45749;51.140;17.184;2023-11-21T03:09:41;99314.81;;;8.91;100.00
59877;BME280;45749;51.140;17.184;2023-11-21T03:12:07;99315.16;;;8.98;100.00
59877;BME280;45749;51.140;17.184;2023-11-21T03:14:32;99325.56;;;8.99;100.00
59877;BME280;45749;51.140;17.184;2023-11-21T03:16:57;99304.75;;;8.96;100.00
59877;BME280;45749;51.140;17.184;2023-11-21T03:19:23;99304.88;;;8.95;100.00
59877;BME280;45749;51.140;17.184;2023-11-21T03:21:48;99318.38;;;9.01;100.00
59877;BME280;45749;51.140;17.184;2023-11-21T03:24:14;99301.31;;;8.96;100.00
59877;BME280;45749;51.140;17.184;2023-11-21T03:26:44;99325.19;;;9.04;100.00
59877;BME280;45749;51.140;17.184;2023-11-21T03:29:10;99322.94;;;8.99;100.00
59877;BME280;45749;51.140;17.184;2023-11-21T03:31:35;99312.31;;;8.89;100.00
59877;BME280;45749;51.140;17.184;2023-11-21T03:34:01;99310.91;;;8.85;100.00
59877;BME280;45749;51.140;17.184;2023-11-21T03:36:26;99313.28;;;8.88;100.00
59877;BME280;45749;51.140;17.184;2023-11-21T03:38:51;99318.41;;;8.90;100.00
59877;BME280;45749;51.140;17.184;2023-11-21T03:41:17;99315.94;;;8.88;100.00
59877;BME280;45749;51.140;17.184;2023-11-21T03:43:42;99330.09;;;8.97;100.00
59877;BME280;45749;51.140;17.184;2023-11-21T03:46:07;99329.41;;;8.95;100.00
59877;BME280;45749;51.140;17.184;2023-11-21T03:48:33;99325.22;;;8.92;100.00
59877;BME280;45749;51.140;17.184;2023-11-21T03:50:58;99318.28;;;8.91;100.00
59877;BME280;45749;51.140;17.184;2023-11-21T03:53:23;99316.16;;;8.85;100.00
59877;BME280;45749;51.140;17.184;2023-11-21T03:55:49;99334.19;;;8.90;100.00
59877;BME280;45749;51.140;17.184;2023-11-21T03:58:15;99333.63;;;8.86;100.00
59877;BME280;45749;51.140;17.184;2023-11-21T04:00:40;99327.06;;;8.81;100.00
59877;BME280;45749;51.140;17.184;2023-11-21T04:03:05;99332.31;;;8.81;100.00
59877;BME280;45749;51.140;17.184;2023-11-21T04:05:31;99329.69;;;8.81;100.00
59877;BME280;45749;51.140;17.184;2023-11-21T04:07:56;99341.38;;;8.88;100.00
59877;BME280;45749;51.140;17.184;2023-11-21T04:10:21;99343.06;;;8.89;100.00
59877;BME280;45749;51.140;17.184;2023-11-21T04:12:47;99338.06;;;8.86;100.00
59877;BME280;45749;51.140;17.184;2023-11-21T04:15:15;99334.34;;;8.88;100.00
59877;BME280;45749;51.140;17.184;2023-11-21T04:17:41;99329.44;;;8.84;100.00
59877;BME280;45749;51.140;17.184;2023-11-21T04:20:08;99346.28;;;8.92;100.00
59877;BME280;45749;51.140;17.184;2023-11-21T04:22:41;99333.03;;;8.83;100.00
59877;BME280;45749;51.140;17.184;2023-11-21T04:25:13;99323.59;;;8.80;100.00
59877;BME280;45749;51.140;17.184;2023-11-21T04:27:45;99335.41;;;8.86;100.00
59877;BME280;45749;51.140;17.184;2023-11-21T04:30:11;99339.59;;;8.88;100.00
59877;BME280;45749;51.140;17.184;2023-11-21T04:32:37;99344.34;;;8.95;100.00
59877;BME280;45749;51.140;17.184;2023-11-21T04:35:04;99332.44;;;8.79;100.00
59877;BME280;45749;51.140;17.184;2023-11-21T04:37:30;99336.34;;;8.85;100.00
59877;BME280;45749;51.140;17.184;2023-11-21T04:39:55;99341.13;;;8.91;100.00
59877;BME280;45749;51.140;17.184;2023-11-21T04:42:20;99345.06;;;8.97;100.00
59877;BME280;45749;51.140;17.184;2023-11-21T04:44:46;99355.78;;;9.05;100.00
59877;BME280;45749;51.140;17.184;2023-11-21T04:47:12;99359.97;;;9.07;100.00
59877;BME280;45749;51.140;17.184;2023-11-21T04:49:37;99344.22;;;8.96;100.00
59877;BME280;45749;51.140;17.184;2023-11-21T04:52:03;99350.81;;;9.02;100.00
59877;BME280;45749;51.140;17.184;2023-11-21T04:54:30;99353.69;;;8.99;100.00
59877;BME280;45749;51.140;17.184;2023-11-21T04:56:56;99364.63;;;9.15;100.00
59877;BME280;45749;51.140;17.184;2023-11-21T04:59:22;99365.94;;;9.09;100.00
59877;BME280;45749;51.140;17.184;2023-11-21T05:01:50;99376.81;;;9.16;100.00
59877;BME280;45749;51.140;17.184;2023-11-21T05:04:15;99374.56;;;9.11;100.00
59877;BME280;45749;51.140;17.184;2023-11-21T05:06:40;99368.00;;;9.06;100.00
59877;BME280;45749;51.140;17.184;2023-11-21T05:09:06;99364.22;;;8.99;100.00
59877;BME280;45749;51.140;17.184;2023-11-21T05:11:31;99361.44;;;9.00;100.00
59877;BME280;45749;51.140;17.184;2023-11-21T05:13:57;99377.22;;;9.00;100.00
59877;BME280;45749;51.140;17.184;2023-11-21T05:16:25;99381.75;;;9.09;100.00
59877;BME280;45749;51.140;17.184;2023-11-21T05:18:52;99388.81;;;9.09;100.00
59877;BME280;45749;51.140;17.184;2023-11-21T05:21:18;99387.63;;;9.02;100.00
59877;BME280;45749;51.140;17.184;2023-11-21T05:23:46;99374.50;;;8.90;100.00
59877;BME280;45749;51.140;17.184;2023-11-21T05:26:11;99383.22;;;8.91;100.00
59877;BME280;45749;51.140;17.184;2023-11-21T05:28:36;99391.00;;;8.92;100.00
59877;BME280;45749;51.140;17.184;2023-11-21T05:31:02;99391.69;;;8.95;100.00
59877;BME280;45749;51.140;17.184;2023-11-21T05:33:27;99389.78;;;8.97;100.00
59877;BME280;45749;51.140;17.184;2023-11-21T05:35:52;99379.06;;;8.88;100.00
59877;BME280;45749;51.140;17.184;2023-11-21T05:38:17;99384.44;;;8.87;100.00
59877;BME280;45749;51.140;17.184;2023-11-21T05:40:43;99390.19;;;8.92;100.00
59877;BME280;45749;51.140;17.184;2023-11-21T05:43:09;99388.13;;;8.84;100.00
59877;BME280;45749;51.140;17.184;2023-11-21T05:45:34;99394.22;;;8.85;100.00
59877;BME280;45749;51.140;17.184;2023-11-21T05:47:59;99406.06;;;8.90;100.00
59877;BME280;45749;51.140;17.184;2023-11-21T05:50:25;99399.97;;;8.90;100.00
59877;BME280;45749;51.140;17.184;2023-11-21T05:52:50;99399.50;;;8.85;100.00
59877;BME280;45749;51.140;17.184;2023-11-21T05:55:15;99399.25;;;8.88;100.00
59877;BME280;45749;51.140;17.184;2023-11-21T05:57:43;99392.47;;;8.85;100.00
59877;BME280;45749;51.140;17.184;2023-11-21T06:00:13;99401.41;;;8.94;100.00
59877;BME280;45749;51.140;17.184;2023-11-21T06:02:51;99406.41;;;8.97;100.00
59877;BME280;45749;51.140;17.184;2023-11-21T06:05:21;99417.06;;;8.96;100.00
59877;BME280;45749;51.140;17.184;2023-11-21T06:07:48;99399.63;;;8.83;100.00
59877;BME280;45749;51.140;17.184;2023-11-21T06:10:13;99421.03;;;8.90;100.00
59877;BME280;45749;51.140;17.184;2023-11-21T06:12:39;99422.81;;;8.89;100.00
59877;BME280;45749;51.140;17.184;2023-11-21T06:15:06;99422.22;;;8.86;100.00
59877;BME280;45749;51.140;17.184;2023-11-21T06:17:38;99434.03;;;8.91;100.00
59877;BME280;45749;51.140;17.184;2023-11-21T06:20:06;99419.72;;;8.84;100.00
59877;BME280;45749;51.140;17.184;2023-11-21T06:22:38;99432.88;;;8.96;100.00
59877;BME280;45749;51.140;17.184;2023-11-21T06:25:04;99439.53;;;9.00;100.00
59877;BME280;45749;51.140;17.184;2023-11-21T06:27:32;99436.66;;;8.91;100.00
59877;BME280;45749;51.140;17.184;2023-11-21T06:29:57;99441.00;;;8.92;100.00
59877;BME280;45749;51.140;17.184;2023-11-21T06:32:23;99436.56;;;8.93;100.00
59877;BME280;45749;51.140;17.184;2023-11-21T06:34:48;99434.41;;;8.87;100.00
59877;BME280;45749;51.140;17.184;2023-11-21T06:37:15;99454.75;;;8.96;100.00
59877;BME280;45749;51.140;17.184;2023-11-21T06:39:40;99442.78;;;8.92;100.00
59877;BME280;45749;51.140;17.184;2023-11-21T06:42:05;99441.25;;;8.89;100.00
59877;BME280;45749;51.140;17.184;2023-11-21T06:44:31;99446.00;;;8.84;100.00
59877;BME280;45749;51.140;17.184;2023-11-21T06:46:58;99453.91;;;8.96;100.00
59877;BME280;45749;51.140;17.184;2023-11-21T06:49:23;99449.09;;;9.01;100.00
59877;BME280;45749;51.140;17.184;2023-11-21T06:51:49;99446.47;;;9.01;100.00
59877;BME280;45749;51.140;17.184;2023-11-21T06:54:14;99461.66;;;9.08;100.00
59877;BME280;45749;51.140;17.184;2023-11-21T06:56:39;99461.41;;;9.11;100.00
59877;BME280;45749;51.140;17.184;2023-11-21T06:59:05;99461.53;;;9.10;100.00
59877;BME280;45749;51.140;17.184;2023-11-21T07:01:31;99454.00;;;9.05;100.00
59877;BME280;45749;51.140;17.184;2023-11-21T07:03:59;99458.91;;;9.10;100.00
59877;BME280;45749;51.140;17.184;2023-11-21T07:06:24;99462.00;;;9.15;100.00
59877;BME280;45749;51.140;17.184;2023-11-21T07:08:50;99461.41;;;9.11;100.00
59877;BME280;45749;51.140;17.184;2023-11-21T07:11:15;99460.22;;;9.15;100.00
59877;BME280;45749;51.140;17.184;2023-11-21T07:13:40;99463.09;;;9.12;100.00
59877;BME280;45749;51.140;17.184;2023-11-21T07:16:06;99467.13;;;9.16;100.00
59877;BME280;45749;51.140;17.184;2023-11-21T07:18:31;99472.53;;;9.15;100.00
59877;BME280;45749;51.140;17.184;2023-11-21T07:20:56;99468.22;;;9.14;100.00
59877;BME280;45749;51.140;17.184;2023-11-21T07:23:23;99474.31;;;9.14;100.00
59877;BME280;45749;51.140;17.184;2023-11-21T07:25:49;99471.56;;;9.16;100.00
59877;BME280;45749;51.140;17.184;2023-11-21T07:28:14;99464.66;;;9.04;100.00
59877;BME280;45749;51.140;17.184;2023-11-21T07:30:40;99490.00;;;9.16;100.00
59877;BME280;45749;51.140;17.184;2023-11-21T07:33:06;99468.25;;;9.03;100.00
59877;BME280;45749;51.140;17.184;2023-11-21T07:35:32;99472.53;;;9.04;100.00
59877;BME280;45749;51.140;17.184;2023-11-21T07:37:57;99481.03;;;9.07;100.00
59877;BME280;45749;51.140;17.184;2023-11-21T07:40:23;99480.09;;;9.08;100.00
59877;BME280;45749;51.140;17.184;2023-11-21T07:42:48;99479.22;;;9.08;100.00
59877;BME280;45749;51.140;17.184;2023-11-21T07:45:15;99487.00;;;9.09;100.00
59877;BME280;45749;51.140;17.184;2023-11-21T07:47:40;99488.91;;;9.07;100.00
59877;BME280;45749;51.140;17.184;2023-11-21T07:50:06;99492.03;;;9.12;100.00
59877;BME280;45749;51.140;17.184;2023-11-21T07:52:32;99495.00;;;9.19;100.00
59877;BME280;45749;51.140;17.184;2023-11-21T07:54:58;99486.03;;;9.10;100.00
59877;BME280;45749;51.140;17.184;2023-11-21T07:57:23;99490.72;;;9.07;100.00
59877;BME280;45749;51.140;17.184;2023-11-21T07:59:49;99481.84;;;9.08;100.00
59877;BME280;45749;51.140;17.184;2023-11-21T08:02:14;99481.41;;;9.03;100.00
59877;BME280;45749;51.140;17.184;2023-11-21T08:04:41;99502.56;;;9.12;100.00
59877;BME280;45749;51.140;17.184;2023-11-21T08:07:07;99492.53;;;9.06;100.00
59877;BME280;45749;51.140;17.184;2023-11-21T08:09:32;99492.53;;;9.06;100.00
59877;BME280;45749;51.140;17.184;2023-11-21T08:11:59;99493.09;;;9.10;100.00
59877;BME280;45749;51.140;17.184;2023-11-21T08:14:25;99488.81;;;9.09;100.00
59877;BME280;45749;51.140;17.184;2023-11-21T08:16:51;99488.31;;;9.04;100.00
59877;BME280;45749;51.140;17.184;2023-11-21T08:19:17;99500.75;;;9.13;100.00
59877;BME280;45749;51.140;17.184;2023-11-21T08:21:43;99498.28;;;9.11;100.00
59877;BME280;45749;51.140;17.184;2023-11-21T08:24:08;99504.13;;;9.15;100.00
59877;BME280;45749;51.140;17.184;2023-11-21T08:26:36;99494.06;;;9.09;100.00
59877;BME280;45749;51.140;17.184;2023-11-21T08:29:01;99515.59;;;9.14;100.00
59877;BME280;45749;51.140;17.184;2023-11-21T08:31:27;99515.59;;;9.14;100.00
59877;BME280;45749;51.140;17.184;2023-11-21T08:33:54;99508.06;;;9.09;100.00
59877;BME280;45749;51.140;17.184;2023-11-21T08:36:22;99498.03;;;9.03;100.00
59877;BME280;45749;51.140;17.184;2023-11-21T08:38:51;99522.41;;;9.16;100.00
59877;BME280;45749;51.140;17.184;2023-11-21T08:41:19;99522.56;;;9.15;100.00
59877;BME280;45749;51.140;17.184;2023-11-21T08:43:49;99517.88;;;9.07;100.00
59877;BME280;45749;51.140;17.184;2023-11-21T08:46:15;99516.44;;;9.03;100.00
59877;BME280;45749;51.140;17.184;2023-11-21T08:48:42;99510.34;;;9.03;100.00
59877;BME280;45749;51.140;17.184;2023-11-21T08:51:10;99511.03;;;9.05;100.00
59877;BME280;45749;51.140;17.184;2023-11-21T08:53:36;99518.69;;;9.08;100.00
59877;BME280;45749;51.140;17.184;2023-11-21T08:56:03;99519.06;;;9.14;100.00
59877;BME280;45749;51.140;17.184;2023-11-21T08:58:30;99513.09;;;9.12;100.00
59877;BME280;45749;51.140;17.184;2023-11-21T09:00:55;99526.13;;;9.25;100.00
59877;BME280;45749;51.140;17.184;2023-11-21T09:03:21;99519.41;;;9.21;100.00
59877;BME280;45749;51.140;17.184;2023-11-21T09:05:46;99517.38;;;9.25;100.00
59877;BME280;45749;51.140;17.184;2023-11-21T09:08:12;99516.28;;;9.27;100.00
59877;BME280;45749;51.140;17.184;2023-11-21T09:10:37;99525.72;;;9.41;100.00
59877;BME280;45749;51.140;17.184;2023-11-21T09:13:04;99520.56;;;9.39;100.00
59877;BME280;45749;51.140;17.184;2023-11-21T09:15:29;99511.94;;;9.37;100.00
59877;BME280;45749;51.140;17.184;2023-11-21T09:17:55;99527.00;;;9.47;100.00
59877;BME280;45749;51.140;17.184;2023-11-21T09:20:21;99521.88;;;9.45;100.00
59877;BME280;45749;51.140;17.184;2023-11-21T09:22:48;99516.72;;;9.44;100.00
59877;BME280;45749;51.140;17.184;2023-11-21T09:25:14;99539.19;;;9.59;100.00
59877;BME280;45749;51.140;17.184;2023-11-21T09:27:39;99528.19;;;9.54;100.00
59877;BME280;45749;51.140;17.184;2023-11-21T09:30:06;99537.41;;;9.59;100.00
59877;BME280;45749;51.140;17.184;2023-11-21T09:32:34;99530.56;;;9.57;100.00
59877;BME280;45749;51.140;17.184;2023-11-21T09:35:02;99523.88;;;9.53;100.00
59877;BME280;45749;51.140;17.184;2023-11-21T09:37:27;99525.56;;;9.54;100.00
59877;BME280;45749;51.140;17.184;2023-11-21T09:39:53;99535.25;;;9.53;100.00
59877;BME280;45749;51.140;17.184;2023-11-21T09:42:25;99530.47;;;9.47;100.00
59877;BME280;45749;51.140;17.184;2023-11-21T09:45:06;99527.50;;;9.40;100.00
59877;BME280;45749;51.140;17.184;2023-11-21T09:47:38;99548.56;;;9.52;100.00
59877;BME280;45749;51.140;17.184;2023-11-21T09:50:04;99539.09;;;9.49;100.00
59877;BME280;45749;51.140;17.184;2023-11-21T09:52:40;99528.31;;;9.52;100.00
59877;BME280;45749;51.140;17.184;2023-11-21T09:55:09;99555.34;;;9.66;100.00
59877;BME280;45749;51.140;17.184;2023-11-21T09:57:38;99534.91;;;9.58;100.00
59877;BME280;45749;51.140;17.184;2023-11-21T10:00:04;99547.81;;;9.61;100.00
59877;BME280;45749;51.140;17.184;2023-11-21T10:02:32;99553.28;;;9.69;100.00
59877;BME280;45749;51.140;17.184;2023-11-21T10:05:01;99544.47;;;9.59;100.00
59877;BME280;45749;51.140;17.184;2023-11-21T10:07:28;99544.47;;;9.59;100.00
59877;BME280;45749;51.140;17.184;2023-11-21T10:09:57;99550.13;;;9.54;100.00
59877;BME280;45749;51.140;17.184;2023-11-21T10:12:25;99549.16;;;9.44;100.00
59877;BME280;45749;51.140;17.184;2023-11-21T10:14:52;99550.25;;;9.42;100.00
59877;BME280;45749;51.140;17.184;2023-11-21T10:17:22;99555.63;;;9.40;100.00
59877;BME280;45749;51.140;17.184;2023-11-21T10:19:51;99560.44;;;9.35;99.79
59877;BME280;45749;51.140;17.184;2023-11-21T10:22:19;99565.13;;;9.31;99.98
59877;BME280;45749;51.140;17.184;2023-11-21T10:24:45;99569.75;;;9.28;99.96
59877;BME280;45749;51.140;17.184;2023-11-21T10:27:11;99575.88;;;9.17;98.98
59877;BME280;45749;51.140;17.184;2023-11-21T10:29:36;99561.19;;;9.03;99.40
59877;BME280;45749;51.140;17.184;2023-11-21T10:32:02;99575.53;;;8.99;99.14
59877;BME280;45749;51.140;17.184;2023-11-21T10:34:28;99575.41;;;8.89;98.92
59877;BME280;45749;51.140;17.184;2023-11-21T10:36:54;99582.47;;;8.89;99.39
59877;BME280;45749;51.140;17.184;2023-11-21T10:39:23;99594.19;;;8.85;99.23
59877;BME280;45749;51.140;17.184;2023-11-21T10:41:49;99605.44;;;8.87;99.34
59877;BME280;45749;51.140;17.184;2023-11-21T10:44:16;99583.53;;;8.75;99.37
59877;BME280;45749;51.140;17.184;2023-11-21T10:46:49;99590.94;;;8.70;98.97
59877;BME280;45749;51.140;17.184;2023-11-21T10:49:19;99595.69;;;8.65;98.88
59877;BME280;45749;51.140;17.184;2023-11-21T10:51:45;99602.16;;;8.61;98.38
59877;BME280;45749;51.140;17.184;2023-11-21T10:54:10;99602.88;;;8.63;98.96
59877;BME280;45749;51.140;17.184;2023-11-21T10:56:37;99601.78;;;8.54;98.46
59877;BME280;45749;51.140;17.184;2023-11-21T10:59:08;99610.88;;;8.50;98.94
59877;BME280;45749;51.140;17.184;2023-11-21T11:01:36;99604.41;;;8.43;98.67
59877;BME280;45749;51.140;17.184;2023-11-21T11:04:06;99604.22;;;8.33;98.70
59877;BME280;45749;51.140;17.184;2023-11-21T11:06:34;99605.88;;;8.34;98.41
59877;BME280;45749;51.140;17.184;2023-11-21T11:09:01;99618.19;;;8.34;98.54
59877;BME280;45749;51.140;17.184;2023-11-21T11:11:28;99617.59;;;8.30;99.39
59877;BME280;45749;51.140;17.184;2023-11-21T11:13:55;99600.84;;;8.31;99.58
59877;BME280;45749;51.140;17.184;2023-11-21T11:16:22;99615.84;;;8.42;99.60
59877;BME280;45749;51.140;17.184;2023-11-21T11:18:49;99599.06;;;8.32;99.07
59877;BME280;45749;51.140;17.184;2023-11-21T11:21:27;99621.09;;;8.42;99.04
59877;BME280;45749;51.140;17.184;2023-11-21T11:24:20;99626.91;;;8.34;97.88
59877;BME280;45749;51.140;17.184;2023-11-21T11:26:56;99628.31;;;8.27;98.42
59877;BME280;45749;51.140;17.184;2023-11-21T11:29:43;99629.97;;;8.17;98.08
59877;BME280;45749;51.140;17.184;2023-11-21T11:32:27;99635.44;;;8.14;97.90
59877;BME280;45749;51.140;17.184;2023-11-21T11:35:11;99627.75;;;7.99;98.04
59877;BME280;45749;51.140;17.184;2023-11-21T11:37:42;99633.69;;;8.02;98.02
59877;BME280;45749;51.140;17.184;2023-11-21T11:40:11;99624.81;;;7.91;98.13
59877;BME280;45749;51.140;17.184;2023-11-21T11:42:36;99625.25;;;7.85;97.98
59877;BME280;45749;51.140;17.184;2023-11-21T11:45:15;99636.38;;;7.89;98.25
59877;BME280;45749;51.140;17.184;2023-11-21T11:47:42;99627.59;;;7.77;97.22
59877;BME280;45749;51.140;17.184;2023-11-21T11:50:10;99638.94;;;7.78;97.66
59877;BME280;45749;51.140;17.184;2023-11-21T11:52:46;99634.34;;;7.68;97.22
59877;BME280;45749;51.140;17.184;2023-11-21T11:55:13;99633.13;;;7.61;97.65
59877;BME280;45749;51.140;17.184;2023-11-21T11:57:42;99648.44;;;7.67;97.40
59877;BME280;45749;51.140;17.184;2023-11-21T12:00:12;99654.00;;;7.63;97.72
59877;BME280;45749;51.140;17.184;2023-11-21T12:02:42;99654.56;;;7.55;97.59
59877;BME280;45749;51.140;17.184;2023-11-21T12:05:15;99658.00;;;7.56;97.29
59877;BME280;45749;51.140;17.184;2023-11-21T12:08:02;99663.25;;;7.56;97.25
59877;BME280;45749;51.140;17.184;2023-11-21T12:10:32;99652.56;;;7.46;97.45
59877;BME280;45749;51.140;17.184;2023-11-21T12:12:59;99668.72;;;7.52;97.14
59877;BME280;45749;51.140;17.184;2023-11-21T12:15:26;99646.91;;;7.39;96.78
59877;BME280;45749;51.140;17.184;2023-11-21T12:17:54;99656.91;;;7.34;97.06
59877;BME280;45749;51.140;17.184;2023-11-21T12:20:22;99668.66;;;7.41;96.98
59877;BME280;45749;51.140;17.184;2023-11-21T12:22:49;99653.66;;;7.31;97.12
59877;BME280;45749;51.140;17.184;2023-11-21T12:25:19;99659.84;;;7.29;97.22
59877;BME280;45749;51.140;17.184;2023-11-21T12:27:49;99670.97;;;7.33;96.86
59877;BME280;45749;51.140;17.184;2023-11-21T12:30:17;99673.28;;;7.25;96.42
59877;BME280;45749;51.140;17.184;2023-11-21T12:32:44;99661.53;;;7.05;96.14
59877;BME280;45749;51.140;17.184;2023-11-21T12:35:11;99666.38;;;6.98;96.19
59877;BME280;45749;51.140;17.184;2023-11-21T12:37:41;99673.91;;;6.90;95.74
59877;BME280;45749;51.140;17.184;2023-11-21T12:40:09;99679.56;;;6.84;95.86
59877;BME280;45749;51.140;17.184;2023-11-21T12:42:37;99683.53;;;6.77;95.25
59877;BME280;45749;51.140;17.184;2023-11-21T12:47:46;99683.72;;;6.61;96.09
59877;BME280;45749;51.140;17.184;2023-11-21T12:50:11;99698.41;;;6.64;95.83
59877;BME280;45749;51.140;17.184;2023-11-21T12:52:49;99689.03;;;6.47;95.81
59877;BME280;45749;51.140;17.184;2023-11-21T12:55:18;99683.34;;;6.40;95.73